sensor_id;sensor_type;location;lat;lon;timestamp;P1;P2;P0
49708;PMS5003;35601;55.902;13.606;2023-11-19T00:00:49;3;3;
49708;PMS5003;35601;55.902;13.606;2023-11-19T00:03:15;5;5;
49708;PMS5003;35601;55.902;13.606;2023-11-19T00:05:40;5;4;
49708;PMS5003;35601;55.902;13.606;2023-11-19T00:08:05;3;3;
49708;PMS5003;35601;55.902;13.606;2023-11-19T00:10:30;2;2;
49708;PMS5003;35601;55.902;13.606;2023-11-19T00:12:56;4;4;
49708;PMS5003;35601;55.902;13.606;2023-11-19T00:15:21;3;3;
49708;PMS5003;35601;55.902;13.606;2023-11-19T00:17:47;5;4;
49708;PMS5003;35601;55.902;13.606;2023-11-19T00:20:12;5;3;
49708;PMS5003;35601;55.902;13.606;2023-11-19T00:22:37;4;4;
49708;PMS5003;35601;55.902;13.606;2023-11-19T00:25:03;4;4;
49708;PMS5003;35601;55.902;13.606;2023-11-19T00:27:28;3;3;
49708;PMS5003;35601;55.902;13.606;2023-11-19T00:29:53;4;4;
49708;PMS5003;35601;55.902;13.606;2023-11-19T00:32:19;4;3;
49708;PMS5003;35601;55.902;13.606;2023-11-19T00:34:44;5;4;
49708;PMS5003;35601;55.902;13.606;2023-11-19T00:37:10;2;2;
49708;PMS5003;35601;55.902;13.606;2023-11-19T00:39:35;3;3;
49708;PMS5003;35601;55.902;13.606;2023-11-19T00:42:00;3;3;
49708;PMS5003;35601;55.902;13.606;2023-11-19T00:44:26;3;3;
49708;PMS5003;35601;55.902;13.606;2023-11-19T00:46:51;3;3;
49708;PMS5003;35601;55.902;13.606;2023-11-19T00:49:16;2;2;
49708;PMS5003;35601;55.902;13.606;2023-11-19T00:51:42;2;2;
49708;PMS5003;35601;55.902;13.606;2023-11-19T00:54:07;7;4;
49708;PMS5003;35601;55.902;13.606;2023-11-19T00:56:33;3;3;
49708;PMS5003;35601;55.902;13.606;2023-11-19T00:58:58;3;3;
49708;PMS5003;35601;55.902;13.606;2023-11-19T01:01:23;3;3;
49708;PMS5003;35601;55.902;13.606;2023-11-19T01:03:49;3;3;
49708;PMS5003;35601;55.902;13.606;2023-11-19T01:06:14;3;3;
49708;PMS5003;35601;55.902;13.606;2023-11-19T01:08:39;4;3;
49708;PMS5003;35601;55.902;13.606;2023-11-19T01:11:05;4;3;
49708;PMS5003;35601;55.902;13.606;2023-11-19T01:13:30;2;2;
49708;PMS5003;35601;55.902;13.606;2023-11-19T01:15:56;2;2;
49708;PMS5003;35601;55.902;13.606;2023-11-19T01:18:21;4;3;
49708;PMS5003;35601;55.902;13.606;2023-11-19T01:20:46;6;4;
49708;PMS5003;35601;55.902;13.606;2023-11-19T01:23:12;3;3;
49708;PMS5003;35601;55.902;13.606;2023-11-19T01:25:37;3;2;
49708;PMS5003;35601;55.902;13.606;2023-11-19T01:28:02;2;2;
49708;PMS5003;35601;55.902;13.606;2023-11-19T01:30:28;3;3;
49708;PMS5003;35601;55.902;13.606;2023-11-19T01:32:53;4;3;
49708;PMS5003;35601;55.902;13.606;2023-11-19T01:35:18;5;2;
49708;PMS5003;35601;55.902;13.606;2023-11-19T01:37:44;5;4;
49708;PMS5003;35601;55.902;13.606;2023-11-19T01:40:10;4;3;
49708;PMS5003;35601;55.902;13.606;2023-11-19T01:42:36;4;3;
49708;PMS5003;35601;55.902;13.606;2023-11-19T01:45:00;3;3;
49708;PMS5003;35601;55.902;13.606;2023-11-19T01:47:25;4;4;
49708;PMS5003;35601;55.902;13.606;2023-11-19T01:49:51;2;2;
49708;PMS5003;35601;55.902;13.606;2023-11-19T01:52:16;6;3;
49708;PMS5003;35601;55.902;13.606;2023-11-19T01:54:41;3;3;
49708;PMS5003;35601;55.902;13.606;2023-11-19T01:57:07;3;3;
49708;PMS5003;35601;55.902;13.606;2023-11-19T01:59:32;4;3;
49708;PMS5003;35601;55.902;13.606;2023-11-19T02:01:57;5;5;
49708;PMS5003;35601;55.902;13.606;2023-11-19T02:04:23;5;4;
49708;PMS5003;35601;55.902;13.606;2023-11-19T02:06:48;4;3;
49708;PMS5003;35601;55.902;13.606;2023-11-19T02:09:14;4;3;
49708;PMS5003;35601;55.902;13.606;2023-11-19T02:11:39;4;4;
49708;PMS5003;35601;55.902;13.606;2023-11-19T02:14:04;4;4;
49708;PMS5003;35601;55.902;13.606;2023-11-19T02:16:30;6;4;
49708;PMS5003;35601;55.902;13.606;2023-11-19T02:18:55;5;5;
49708;PMS5003;35601;55.902;13.606;2023-11-19T02:21:20;5;5;
49708;PMS5003;35601;55.902;13.606;2023-11-19T02:23:46;4;3;
49708;PMS5003;35601;55.902;13.606;2023-11-19T02:26:13;8;7;
49708;PMS5003;35601;55.902;13.606;2023-11-19T02:28:36;6;5;
49708;PMS5003;35601;55.902;13.606;2023-11-19T02:31:02;8;8;
49708;PMS5003;35601;55.902;13.606;2023-11-19T02:33:27;8;7;
49708;PMS5003;35601;55.902;13.606;2023-11-19T02:35:53;13;9;
49708;PMS5003;35601;55.902;13.606;2023-11-19T02:38:18;9;8;
49708;PMS5003;35601;55.902;13.606;2023-11-19T02:40:43;12;8;
49708;PMS5003;35601;55.902;13.606;2023-11-19T02:43:08;10;10;
49708;PMS5003;35601;55.902;13.606;2023-11-19T02:45:34;10;8;
49708;PMS5003;35601;55.902;13.606;2023-11-19T02:47:59;15;11;
49708;PMS5003;35601;55.902;13.606;2023-11-19T02:50:24;10;8;
49708;PMS5003;35601;55.902;13.606;2023-11-19T02:52:49;14;13;
49708;PMS5003;35601;55.902;13.606;2023-11-19T02:55:14;10;10;
49708;PMS5003;35601;55.902;13.606;2023-11-19T02:57:40;18;13;
49708;PMS5003;35601;55.902;13.606;2023-11-19T03:00:06;14;10;
49708;PMS5003;35601;55.902;13.606;2023-11-19T03:02:31;13;11;
49708;PMS5003;35601;55.902;13.606;2023-11-19T03:04:56;18;14;
49708;PMS5003;35601;55.902;13.606;2023-11-19T03:07:21;14;14;
49708;PMS5003;35601;55.902;13.606;2023-11-19T03:09:46;20;15;
49708;PMS5003;35601;55.902;13.606;2023-11-19T03:12:12;18;16;
49708;PMS5003;35601;55.902;13.606;2023-11-19T03:14:37;17;14;
49708;PMS5003;35601;55.902;13.606;2023-11-19T03:17:03;19;16;
49708;PMS5003;35601;55.902;13.606;2023-11-19T03:19:28;17;16;
49708;PMS5003;35601;55.902;13.606;2023-11-19T03:21:54;26;15;
49708;PMS5003;35601;55.902;13.606;2023-11-19T03:24:19;19;17;
49708;PMS5003;35601;55.902;13.606;2023-11-19T03:26:47;20;19;
49708;PMS5003;35601;55.902;13.606;2023-11-19T03:29:10;18;16;
49708;PMS5003;35601;55.902;13.606;2023-11-19T03:31:35;23;20;
49708;PMS5003;35601;55.902;13.606;2023-11-19T03:34:01;16;15;
49708;PMS5003;35601;55.902;13.606;2023-11-19T03:38:51;22;19;
49708;PMS5003;35601;55.902;13.606;2023-11-19T03:41:17;19;19;
49708;PMS5003;35601;55.902;13.606;2023-11-19T03:43:42;29;23;
49708;PMS5003;35601;55.902;13.606;2023-11-19T03:48:32;16;15;
49708;PMS5003;35601;55.902;13.606;2023-11-19T03:50:58;24;19;
49708;PMS5003;35601;55.902;13.606;2023-11-19T03:53:24;22;19;
49708;PMS5003;35601;55.902;13.606;2023-11-19T03:55:49;15;12;
49708;PMS5003;35601;55.902;13.606;2023-11-19T03:58:14;18;17;
49708;PMS5003;35601;55.902;13.606;2023-11-19T04:00:39;18;14;
49708;PMS5003;35601;55.902;13.606;2023-11-19T04:03:04;15;13;
49708;PMS5003;35601;55.902;13.606;2023-11-19T04:05:30;18;17;
49708;PMS5003;35601;55.902;13.606;2023-11-19T04:07:55;20;15;
49708;PMS5003;35601;55.902;13.606;2023-11-19T04:10:21;18;16;
49708;PMS5003;35601;55.902;13.606;2023-11-19T04:12:47;22;16;
49708;PMS5003;35601;55.902;13.606;2023-11-19T04:15:13;16;13;
49708;PMS5003;35601;55.902;13.606;2023-11-19T04:17:38;19;13;
49708;PMS5003;35601;55.902;13.606;2023-11-19T04:20:04;16;15;
49708;PMS5003;35601;55.902;13.606;2023-11-19T04:22:29;17;13;
49708;PMS5003;35601;55.902;13.606;2023-11-19T04:24:54;16;16;
49708;PMS5003;35601;55.902;13.606;2023-11-19T04:27:20;17;15;
49708;PMS5003;35601;55.902;13.606;2023-11-19T04:29:46;17;17;
49708;PMS5003;35601;55.902;13.606;2023-11-19T04:32:12;12;10;
49708;PMS5003;35601;55.902;13.606;2023-11-19T04:34:37;19;17;
49708;PMS5003;35601;55.902;13.606;2023-11-19T04:37:03;16;16;
49708;PMS5003;35601;55.902;13.606;2023-11-19T04:39:28;28;25;
49708;PMS5003;35601;55.902;13.606;2023-11-19T04:41:54;22;17;
49708;PMS5003;35601;55.902;13.606;2023-11-19T04:44:19;17;13;
49708;PMS5003;35601;55.902;13.606;2023-11-19T04:46:45;18;16;
49708;PMS5003;35601;55.902;13.606;2023-11-19T04:49:10;16;16;
49708;PMS5003;35601;55.902;13.606;2023-11-19T04:51:37;15;15;
49708;PMS5003;35601;55.902;13.606;2023-11-19T04:54:01;14;14;
49708;PMS5003;35601;55.902;13.606;2023-11-19T04:56:26;16;14;
49708;PMS5003;35601;55.902;13.606;2023-11-19T04:58:52;11;11;
49708;PMS5003;35601;55.902;13.606;2023-11-19T05:01:18;16;12;
49708;PMS5003;35601;55.902;13.606;2023-11-19T05:03:44;18;14;
49708;PMS5003;35601;55.902;13.606;2023-11-19T05:06:10;14;12;
49708;PMS5003;35601;55.902;13.606;2023-11-19T05:08:35;14;12;
49708;PMS5003;35601;55.902;13.606;2023-11-19T05:11:01;11;8;
49708;PMS5003;35601;55.902;13.606;2023-11-19T05:13:27;19;17;
49708;PMS5003;35601;55.902;13.606;2023-11-19T05:15:52;17;11;
49708;PMS5003;35601;55.902;13.606;2023-11-19T05:18:17;18;14;
49708;PMS5003;35601;55.902;13.606;2023-11-19T05:20:43;20;19;
49708;PMS5003;35601;55.902;13.606;2023-11-19T05:23:08;20;14;
49708;PMS5003;35601;55.902;13.606;2023-11-19T05:25:33;23;19;
49708;PMS5003;35601;55.902;13.606;2023-11-19T05:27:59;18;15;
49708;PMS5003;35601;55.902;13.606;2023-11-19T05:30:24;18;13;
49708;PMS5003;35601;55.902;13.606;2023-11-19T05:32:50;17;17;
49708;PMS5003;35601;55.902;13.606;2023-11-19T05:35:15;17;14;
49708;PMS5003;35601;55.902;13.606;2023-11-19T05:37:40;18;13;
49708;PMS5003;35601;55.902;13.606;2023-11-19T05:40:06;26;21;
49708;PMS5003;35601;55.902;13.606;2023-11-19T05:42:32;22;19;
49708;PMS5003;35601;55.902;13.606;2023-11-19T05:44:57;21;21;
49708;PMS5003;35601;55.902;13.606;2023-11-19T05:47:22;18;13;
49708;PMS5003;35601;55.902;13.606;2023-11-19T05:49:48;20;15;
49708;PMS5003;35601;55.902;13.606;2023-11-19T05:52:13;27;21;
49708;PMS5003;35601;55.902;13.606;2023-11-19T05:54:39;20;15;
49708;PMS5003;35601;55.902;13.606;2023-11-19T05:57:05;19;18;
49708;PMS5003;35601;55.902;13.606;2023-11-19T05:59:30;25;20;
49708;PMS5003;35601;55.902;13.606;2023-11-19T06:01:57;27;25;
49708;PMS5003;35601;55.902;13.606;2023-11-19T06:04:21;25;19;
49708;PMS5003;35601;55.902;13.606;2023-11-19T06:06:46;26;19;
49708;PMS5003;35601;55.902;13.606;2023-11-19T06:09:11;26;21;
49708;PMS5003;35601;55.902;13.606;2023-11-19T06:11:37;24;21;
49708;PMS5003;35601;55.902;13.606;2023-11-19T06:14:02;26;22;
49708;PMS5003;35601;55.902;13.606;2023-11-19T06:16:27;31;24;
49708;PMS5003;35601;55.902;13.606;2023-11-19T06:18:53;33;28;
49708;PMS5003;35601;55.902;13.606;2023-11-19T06:21:18;25;22;
49708;PMS5003;35601;55.902;13.606;2023-11-19T06:23:44;37;32;
49708;PMS5003;35601;55.902;13.606;2023-11-19T06:26:09;32;31;
49708;PMS5003;35601;55.902;13.606;2023-11-19T06:28:35;33;28;
49708;PMS5003;35601;55.902;13.606;2023-11-19T06:31:00;34;25;
49708;PMS5003;35601;55.902;13.606;2023-11-19T06:33:25;42;34;
49708;PMS5003;35601;55.902;13.606;2023-11-19T06:35:51;30;25;
49708;PMS5003;35601;55.902;13.606;2023-11-19T06:38:16;32;27;
49708;PMS5003;35601;55.902;13.606;2023-11-19T06:40:41;37;31;
49708;PMS5003;35601;55.902;13.606;2023-11-19T06:43:07;31;28;
49708;PMS5003;35601;55.902;13.606;2023-11-19T06:45:32;37;31;
49708;PMS5003;35601;55.902;13.606;2023-11-19T06:47:57;40;34;
49708;PMS5003;35601;55.902;13.606;2023-11-19T06:50:23;36;30;
49708;PMS5003;35601;55.902;13.606;2023-11-19T06:52:49;34;29;
49708;PMS5003;35601;55.902;13.606;2023-11-19T06:55:14;33;30;
49708;PMS5003;35601;55.902;13.606;2023-11-19T06:57:39;35;31;
49708;PMS5003;35601;55.902;13.606;2023-11-19T07:00:05;49;35;
49708;PMS5003;35601;55.902;13.606;2023-11-19T07:02:29;41;35;
49708;PMS5003;35601;55.902;13.606;2023-11-19T07:04:55;33;28;
49708;PMS5003;35601;55.902;13.606;2023-11-19T07:07:21;39;34;
49708;PMS5003;35601;55.902;13.606;2023-11-19T07:09:46;44;37;
49708;PMS5003;35601;55.902;13.606;2023-11-19T07:12:11;39;33;
49708;PMS5003;35601;55.902;13.606;2023-11-19T07:14:36;32;29;
49708;PMS5003;35601;55.902;13.606;2023-11-19T07:17:02;31;27;
49708;PMS5003;35601;55.902;13.606;2023-11-19T07:19:27;36;28;
49708;PMS5003;35601;55.902;13.606;2023-11-19T07:21:53;37;31;
49708;PMS5003;35601;55.902;13.606;2023-11-19T07:24:18;35;30;
49708;PMS5003;35601;55.902;13.606;2023-11-19T07:26:44;24;24;
49708;PMS5003;35601;55.902;13.606;2023-11-19T07:29:09;32;27;
49708;PMS5003;35601;55.902;13.606;2023-11-19T07:31:35;38;32;
49708;PMS5003;35601;55.902;13.606;2023-11-19T07:34:00;34;31;
49708;PMS5003;35601;55.902;13.606;2023-11-19T07:36:25;38;26;
49708;PMS5003;35601;55.902;13.606;2023-11-19T07:38:50;35;28;
49708;PMS5003;35601;55.902;13.606;2023-11-19T07:41:16;31;25;
49708;PMS5003;35601;55.902;13.606;2023-11-19T07:43:43;32;28;
49708;PMS5003;35601;55.902;13.606;2023-11-19T07:46:10;29;26;
49708;PMS5003;35601;55.902;13.606;2023-11-19T07:48:32;34;27;
49708;PMS5003;35601;55.902;13.606;2023-11-19T07:50:57;31;25;
49708;PMS5003;35601;55.902;13.606;2023-11-19T07:53:23;31;29;
49708;PMS5003;35601;55.902;13.606;2023-11-19T07:55:48;36;30;
49708;PMS5003;35601;55.902;13.606;2023-11-19T07:58:13;39;29;
49708;PMS5003;35601;55.902;13.606;2023-11-19T08:00:39;32;28;
49708;PMS5003;35601;55.902;13.606;2023-11-19T08:03:05;31;26;
49708;PMS5003;35601;55.902;13.606;2023-11-19T08:05:30;31;27;
49708;PMS5003;35601;55.902;13.606;2023-11-19T08:07:55;26;23;
49708;PMS5003;35601;55.902;13.606;2023-11-19T08:10:20;27;24;
49708;PMS5003;35601;55.902;13.606;2023-11-19T08:12:46;32;27;
49708;PMS5003;35601;55.902;13.606;2023-11-19T08:15:12;30;27;
49708;PMS5003;35601;55.902;13.606;2023-11-19T08:17:37;26;21;
49708;PMS5003;35601;55.902;13.606;2023-11-19T08:20:03;29;26;
49708;PMS5003;35601;55.902;13.606;2023-11-19T08:22:28;27;22;
49708;PMS5003;35601;55.902;13.606;2023-11-19T08:24:54;26;24;
49708;PMS5003;35601;55.902;13.606;2023-11-19T08:27:19;27;24;
49708;PMS5003;35601;55.902;13.606;2023-11-19T08:29:44;24;24;
49708;PMS5003;35601;55.902;13.606;2023-11-19T08:32:10;28;27;
49708;PMS5003;35601;55.902;13.606;2023-11-19T08:34:36;30;25;
49708;PMS5003;35601;55.902;13.606;2023-11-19T08:37:01;28;25;
49708;PMS5003;35601;55.902;13.606;2023-11-19T08:39:27;25;22;
49708;PMS5003;35601;55.902;13.606;2023-11-19T08:41:53;19;16;
49708;PMS5003;35601;55.902;13.606;2023-11-19T08:44:18;28;23;
49708;PMS5003;35601;55.902;13.606;2023-11-19T08:46:46;30;26;
49708;PMS5003;35601;55.902;13.606;2023-11-19T08:49:09;24;22;
49708;PMS5003;35601;55.902;13.606;2023-11-19T08:51:34;25;24;
49708;PMS5003;35601;55.902;13.606;2023-11-19T08:53:59;22;18;
49708;PMS5003;35601;55.902;13.606;2023-11-19T08:56:25;26;20;
49708;PMS5003;35601;55.902;13.606;2023-11-19T08:58:51;28;22;
49708;PMS5003;35601;55.902;13.606;2023-11-19T09:01:16;22;22;
49708;PMS5003;35601;55.902;13.606;2023-11-19T09:03:41;28;18;
49708;PMS5003;35601;55.902;13.606;2023-11-19T09:06:07;27;23;
49708;PMS5003;35601;55.902;13.606;2023-11-19T09:08:32;24;21;
49708;PMS5003;35601;55.902;13.606;2023-11-19T09:10:58;23;17;
49708;PMS5003;35601;55.902;13.606;2023-11-19T09:13:23;38;32;
49708;PMS5003;35601;55.902;13.606;2023-11-19T09:15:49;29;24;
49708;PMS5003;35601;55.902;13.606;2023-11-19T09:18:15;20;20;
49708;PMS5003;35601;55.902;13.606;2023-11-19T09:20:40;22;20;
49708;PMS5003;35601;55.902;13.606;2023-11-19T09:23:06;31;23;
49708;PMS5003;35601;55.902;13.606;2023-11-19T09:25:31;22;17;
49708;PMS5003;35601;55.902;13.606;2023-11-19T09:27:57;21;16;
49708;PMS5003;35601;55.902;13.606;2023-11-19T09:30:22;26;22;
49708;PMS5003;35601;55.902;13.606;2023-11-19T09:32:48;22;20;
49708;PMS5003;35601;55.902;13.606;2023-11-19T09:35:14;21;19;
49708;PMS5003;35601;55.902;13.606;2023-11-19T09:37:40;29;26;
49708;PMS5003;35601;55.902;13.606;2023-11-19T09:40:06;28;25;
49708;PMS5003;35601;55.902;13.606;2023-11-19T09:42:31;20;19;
49708;PMS5003;35601;55.902;13.606;2023-11-19T09:44:57;23;21;
49708;PMS5003;35601;55.902;13.606;2023-11-19T09:47:22;21;18;
49708;PMS5003;35601;55.902;13.606;2023-11-19T09:49:48;25;23;
49708;PMS5003;35601;55.902;13.606;2023-11-19T09:52:13;24;18;
49708;PMS5003;35601;55.902;13.606;2023-11-19T09:54:38;22;19;
49708;PMS5003;35601;55.902;13.606;2023-11-19T09:57:03;21;19;
49708;PMS5003;35601;55.902;13.606;2023-11-19T09:59:29;16;14;
49708;PMS5003;35601;55.902;13.606;2023-11-19T10:01:54;23;18;
49708;PMS5003;35601;55.902;13.606;2023-11-19T10:04:19;15;14;
49708;PMS5003;35601;55.902;13.606;2023-11-19T10:06:45;15;15;
49708;PMS5003;35601;55.902;13.606;2023-11-19T10:09:11;22;19;
49708;PMS5003;35601;55.902;13.606;2023-11-19T10:11:36;20;18;
49708;PMS5003;35601;55.902;13.606;2023-11-19T10:14:01;15;14;
49708;PMS5003;35601;55.902;13.606;2023-11-19T10:16:28;20;19;
49708;PMS5003;35601;55.902;13.606;2023-11-19T10:18:52;15;12;
49708;PMS5003;35601;55.902;13.606;2023-11-19T10:21:18;25;18;
49708;PMS5003;35601;55.902;13.606;2023-11-19T10:23:48;17;16;
49708;PMS5003;35601;55.902;13.606;2023-11-19T10:26:09;11;11;
49708;PMS5003;35601;55.902;13.606;2023-11-19T10:28:38;14;11;
49708;PMS5003;35601;55.902;13.606;2023-11-19T10:30:59;17;14;
49708;PMS5003;35601;55.902;13.606;2023-11-19T10:33:25;18;12;
49708;PMS5003;35601;55.902;13.606;2023-11-19T10:35:51;19;15;
49708;PMS5003;35601;55.902;13.606;2023-11-19T10:38:15;14;14;
49708;PMS5003;35601;55.902;13.606;2023-11-19T10:40:41;22;17;
49708;PMS5003;35601;55.902;13.606;2023-11-19T10:43:06;18;17;
49708;PMS5003;35601;55.902;13.606;2023-11-19T10:45:31;14;14;
49708;PMS5003;35601;55.902;13.606;2023-11-19T10:47:57;11;9;
49708;PMS5003;35601;55.902;13.606;2023-11-19T10:50:22;11;11;
49708;PMS5003;35601;55.902;13.606;2023-11-19T10:52:48;14;8;
49708;PMS5003;35601;55.902;13.606;2023-11-19T10:55:13;13;11;
49708;PMS5003;35601;55.902;13.606;2023-11-19T10:57:38;15;12;
49708;PMS5003;35601;55.902;13.606;2023-11-19T11:00:04;12;11;
49708;PMS5003;35601;55.902;13.606;2023-11-19T11:02:30;20;14;
49708;PMS5003;35601;55.902;13.606;2023-11-19T11:04:55;12;10;
49708;PMS5003;35601;55.902;13.606;2023-11-19T11:07:21;19;17;
49708;PMS5003;35601;55.902;13.606;2023-11-19T11:09:46;12;10;
49708;PMS5003;35601;55.902;13.606;2023-11-19T11:12:11;15;14;
49708;PMS5003;35601;55.902;13.606;2023-11-19T11:14:37;14;11;
49708;PMS5003;35601;55.902;13.606;2023-11-19T11:17:02;14;12;
49708;PMS5003;35601;55.902;13.606;2023-11-19T11:19:27;9;9;
49708;PMS5003;35601;55.902;13.606;2023-11-19T11:21:53;12;12;
49708;PMS5003;35601;55.902;13.606;2023-11-19T11:26:50;14;12;
49708;PMS5003;35601;55.902;13.606;2023-11-19T11:29:09;12;10;
49708;PMS5003;35601;55.902;13.606;2023-11-19T11:31:36;12;11;
49708;PMS5003;35601;55.902;13.606;2023-11-19T11:34:09;12;12;
49708;PMS5003;35601;55.902;13.606;2023-11-19T11:36:25;12;11;
49708;PMS5003;35601;55.902;13.606;2023-11-19T11:38:50;13;11;
49708;PMS5003;35601;55.902;13.606;2023-11-19T11:41:16;18;12;
49708;PMS5003;35601;55.902;13.606;2023-11-19T11:43:44;13;11;
49708;PMS5003;35601;55.902;13.606;2023-11-19T11:46:06;14;13;
49708;PMS5003;35601;55.902;13.606;2023-11-19T11:48:31;14;14;
49708;PMS5003;35601;55.902;13.606;2023-11-19T11:50:57;10;10;
49708;PMS5003;35601;55.902;13.606;2023-11-19T11:53:23;17;14;
49708;PMS5003;35601;55.902;13.606;2023-11-19T11:55:53;15;14;
49708;PMS5003;35601;55.902;13.606;2023-11-19T11:58:13;21;18;
49708;PMS5003;35601;55.902;13.606;2023-11-19T12:00:40;17;13;
49708;PMS5003;35601;55.902;13.606;2023-11-19T12:03:05;14;12;
49708;PMS5003;35601;55.902;13.606;2023-11-19T12:05:30;18;14;
49708;PMS5003;35601;55.902;13.606;2023-11-19T12:07:56;15;14;
49708;PMS5003;35601;55.902;13.606;2023-11-19T12:10:21;15;14;
49708;PMS5003;35601;55.902;13.606;2023-11-19T12:12:46;18;15;
49708;PMS5003;35601;55.902;13.606;2023-11-19T12:15:12;11;11;
49708;PMS5003;35601;55.902;13.606;2023-11-19T12:17:40;10;10;
49708;PMS5003;35601;55.902;13.606;2023-11-19T12:20:03;14;13;
49708;PMS5003;35601;55.902;13.606;2023-11-19T12:22:28;11;11;
49708;PMS5003;35601;55.902;13.606;2023-11-19T12:24:53;13;12;
49708;PMS5003;35601;55.902;13.606;2023-11-19T12:27:19;13;12;
49708;PMS5003;35601;55.902;13.606;2023-11-19T12:29:44;11;11;
49708;PMS5003;35601;55.902;13.606;2023-11-19T12:32:10;12;11;
49708;PMS5003;35601;55.902;13.606;2023-11-19T12:34:35;13;11;
49708;PMS5003;35601;55.902;13.606;2023-11-19T12:37:02;10;9;
49708;PMS5003;35601;55.902;13.606;2023-11-19T12:39:25;14;11;
49708;PMS5003;35601;55.902;13.606;2023-11-19T12:41:51;12;10;
49708;PMS5003;35601;55.902;13.606;2023-11-19T12:44:16;10;10;
49708;PMS5003;35601;55.902;13.606;2023-11-19T12:46:42;9;9;
49708;PMS5003;35601;55.902;13.606;2023-11-19T12:49:07;18;11;
49708;PMS5003;35601;55.902;13.606;2023-11-19T12:51:33;14;13;
49708;PMS5003;35601;55.902;13.606;2023-11-19T12:53:58;8;8;
49708;PMS5003;35601;55.902;13.606;2023-11-19T12:56:24;9;9;
49708;PMS5003;35601;55.902;13.606;2023-11-19T12:58:49;8;8;
49708;PMS5003;35601;55.902;13.606;2023-11-19T13:01:15;11;10;
49708;PMS5003;35601;55.902;13.606;2023-11-19T13:03:40;9;9;
49708;PMS5003;35601;55.902;13.606;2023-11-19T13:06:05;9;8;
49708;PMS5003;35601;55.902;13.606;2023-11-19T13:10:55;10;9;
49708;PMS5003;35601;55.902;13.606;2023-11-19T13:13:21;12;9;
49708;PMS5003;35601;55.902;13.606;2023-11-19T13:15:46;14;14;
49708;PMS5003;35601;55.902;13.606;2023-11-19T13:18:11;17;9;
49708;PMS5003;35601;55.902;13.606;2023-11-19T13:20:37;11;11;
49708;PMS5003;35601;55.902;13.606;2023-11-19T13:23:02;13;13;
49708;PMS5003;35601;55.902;13.606;2023-11-19T13:25:27;10;10;
49708;PMS5003;35601;55.902;13.606;2023-11-19T13:27:53;8;8;
49708;PMS5003;35601;55.902;13.606;2023-11-19T13:30:18;10;10;
49708;PMS5003;35601;55.902;13.606;2023-11-19T13:32:43;15;10;
49708;PMS5003;35601;55.902;13.606;2023-11-19T13:35:08;11;11;
49708;PMS5003;35601;55.902;13.606;2023-11-19T13:37:34;18;15;
49708;PMS5003;35601;55.902;13.606;2023-11-19T13:40:00;23;22;
49708;PMS5003;35601;55.902;13.606;2023-11-19T13:42:25;12;8;
49708;PMS5003;35601;55.902;13.606;2023-11-19T13:44:51;13;8;
49708;PMS5003;35601;55.902;13.606;2023-11-19T13:47:16;7;7;
49708;PMS5003;35601;55.902;13.606;2023-11-19T13:49:42;10;9;
49708;PMS5003;35601;55.902;13.606;2023-11-19T13:52:07;9;7;
49708;PMS5003;35601;55.902;13.606;2023-11-19T13:54:32;11;9;
49708;PMS5003;35601;55.902;13.606;2023-11-19T13:56:58;7;7;
49708;PMS5003;35601;55.902;13.606;2023-11-19T13:59:23;7;6;
49708;PMS5003;35601;55.902;13.606;2023-11-19T14:01:48;7;6;
49708;PMS5003;35601;55.902;13.606;2023-11-19T14:04:14;9;7;
49708;PMS5003;35601;55.902;13.606;2023-11-19T14:06:39;9;7;
49708;PMS5003;35601;55.902;13.606;2023-11-19T14:09:06;8;6;
49708;PMS5003;35601;55.902;13.606;2023-11-19T14:11:30;9;7;
49708;PMS5003;35601;55.902;13.606;2023-11-19T14:13:55;6;6;
49708;PMS5003;35601;55.902;13.606;2023-11-19T14:16:20;9;9;
49708;PMS5003;35601;55.902;13.606;2023-11-19T14:18:46;8;6;
49708;PMS5003;35601;55.902;13.606;2023-11-19T14:21:11;6;6;
49708;PMS5003;35601;55.902;13.606;2023-11-19T14:23:36;4;4;
49708;PMS5003;35601;55.902;13.606;2023-11-19T14:26:03;8;7;
49708;PMS5003;35601;55.902;13.606;2023-11-19T14:28:28;8;8;
49708;PMS5003;35601;55.902;13.606;2023-11-19T14:30:53;9;8;
49708;PMS5003;35601;55.902;13.606;2023-11-19T14:33:18;7;6;
49708;PMS5003;35601;55.902;13.606;2023-11-19T14:35:44;6;6;
49708;PMS5003;35601;55.902;13.606;2023-11-19T14:38:09;9;9;
49708;PMS5003;35601;55.902;13.606;2023-11-19T14:40:35;8;8;
49708;PMS5003;35601;55.902;13.606;2023-11-19T14:43:00;7;7;
49708;PMS5003;35601;55.902;13.606;2023-11-19T14:45:26;11;8;
49708;PMS5003;35601;55.902;13.606;2023-11-19T14:47:51;9;9;
49708;PMS5003;35601;55.902;13.606;2023-11-19T14:50:16;7;7;
49708;PMS5003;35601;55.902;13.606;2023-11-19T14:52:42;15;11;
49708;PMS5003;35601;55.902;13.606;2023-11-19T14:55:08;8;7;
49708;PMS5003;35601;55.902;13.606;2023-11-19T14:57:33;22;13;
49708;PMS5003;35601;55.902;13.606;2023-11-19T14:59:58;7;7;
49708;PMS5003;35601;55.902;13.606;2023-11-19T15:02:24;8;8;
49708;PMS5003;35601;55.902;13.606;2023-11-19T15:04:49;8;5;
49708;PMS5003;35601;55.902;13.606;2023-11-19T15:07:14;13;10;
49708;PMS5003;35601;55.902;13.606;2023-11-19T15:09:39;12;10;
49708;PMS5003;35601;55.902;13.606;2023-11-19T15:12:05;7;6;
49708;PMS5003;35601;55.902;13.606;2023-11-19T15:14:30;8;6;
49708;PMS5003;35601;55.902;13.606;2023-11-19T15:16:55;5;5;
49708;PMS5003;35601;55.902;13.606;2023-11-19T15:19:20;12;9;
49708;PMS5003;35601;55.902;13.606;2023-11-19T15:21:46;9;7;
49708;PMS5003;35601;55.902;13.606;2023-11-19T15:24:11;9;6;
49708;PMS5003;35601;55.902;13.606;2023-11-19T15:26:37;7;6;
49708;PMS5003;35601;55.902;13.606;2023-11-19T15:29:02;6;6;
49708;PMS5003;35601;55.902;13.606;2023-11-19T15:31:27;9;7;
49708;PMS5003;35601;55.902;13.606;2023-11-19T15:33:53;6;6;
49708;PMS5003;35601;55.902;13.606;2023-11-19T15:36:18;11;8;
49708;PMS5003;35601;55.902;13.606;2023-11-19T15:38:44;8;7;
49708;PMS5003;35601;55.902;13.606;2023-11-19T15:41:09;10;7;
49708;PMS5003;35601;55.902;13.606;2023-11-19T15:43:34;6;5;
49708;PMS5003;35601;55.902;13.606;2023-11-19T15:46:00;8;8;
49708;PMS5003;35601;55.902;13.606;2023-11-19T15:48:25;11;10;
49708;PMS5003;35601;55.902;13.606;2023-11-19T15:50:50;8;8;
49708;PMS5003;35601;55.902;13.606;2023-11-19T15:53:16;8;8;
49708;PMS5003;35601;55.902;13.606;2023-11-19T15:55:42;7;7;
49708;PMS5003;35601;55.902;13.606;2023-11-19T15:58:07;14;14;
49708;PMS5003;35601;55.902;13.606;2023-11-19T16:00:33;13;10;
49708;PMS5003;35601;55.902;13.606;2023-11-19T16:02:59;10;9;
49708;PMS5003;35601;55.902;13.606;2023-11-19T16:05:24;10;10;
49708;PMS5003;35601;55.902;13.606;2023-11-19T16:07:50;12;10;